メインページ
METAR-TAF:

METAR-TAF

空港 :

パルマ・デ・マリョルカ, スペイン

パルマ・デ・マヨルカ空港

緯度: 39-33N, 経度: 002-44E, 海抜: 4m

現時点の気象観測

当レポートは17分前の09:30(UTC)に作成
南西の風 13kt、から西の間で変化する
気温 16°C
湿度 68%
気圧 1017 hPa
視程10km以上
高度1800ftの雲はほとんどない

METAR: LEPA 250930Z 23013KT 190V260 9999 FEW018 16/10 Q1017 NOSIG

時間: 10:47 (09:47 UTC)

予報

当レポートは4時間47分前の05:00(UTC)に作成
予報は25日の 06時(UTC)から 26日の 06時(UTC)まで有効
南西の風 15kt
視程10km以上
高度2500ftの雲は散在している
25日の 06時(UTC)から 25日の 09時(UTC)まで一時的に
南西の風 18kt、最大28ktの突風を伴う
25日の 22時(UTC)から 25日の 24時(UTC)まで徐々に
変向風 4kt

TAF: LEPA 250500Z 2506/2606 23015KT 9999 SCT025 TX17/2512Z TN07/2506Z TEMPO 2506/2509 23018G28KT BECMG 2522/2524 VRB04KT

4,000以上の空港の気象観測と天気予報(METAR報とTAF報)

利用可能な観測所は地図上に黄色い丸と赤い丸で示す。

丸の上にカーソルを重ねると観測所名を参照できる。

次にクリックすると気象観測と天気予報を参照できる。

マップの切り替え:黒色「×」印の緑ボタンをクリックして拡大、「-」印の緑ボタンをクリックして縮小、緑色の三角印をクリックして隣りの地図に切り替え


METAR-TAF: